createdAt,value
2018-04-16T00:01:57.982Z,64.60
2018-04-16T00:04:26.224Z,63.10
2018-04-16T00:06:54.453Z,65.00
2018-04-16T00:09:22.667Z,62.40
2018-04-16T00:11:50.870Z,63.00
2018-04-16T00:14:19.083Z,61.60
2018-04-16T00:16:47.294Z,58.10
2018-04-16T00:19:15.531Z,58.70
2018-04-16T00:21:43.760Z,60.50
2018-04-16T00:24:11.967Z,59.30
2018-04-16T00:26:40.158Z,59.40
2018-04-16T00:29:08.377Z,58.70
2018-04-16T00:31:42.258Z,59.80
2018-04-16T00:34:16.083Z,60.40
2018-04-16T00:36:50.024Z,58.90
2018-04-16T00:39:23.950Z,60.00
2018-04-16T00:41:57.887Z,59.60
2018-04-16T00:44:31.859Z,58.70
2018-04-16T00:47:05.826Z,57.70
2018-04-16T00:49:39.851Z,58.20
2018-04-16T00:52:13.742Z,57.60
2018-04-16T00:54:47.724Z,55.80
2018-04-16T00:57:21.623Z,57.00
2018-04-16T00:59:56.160Z,57.50
2018-04-16T01:02:29.930Z,57.10
2018-04-16T01:05:03.882Z,57.70
2018-04-16T01:07:37.670Z,56.60
2018-04-16T01:10:11.457Z,57.00
2018-04-16T01:12:46.010Z,56.50
2018-04-16T01:15:19.918Z,56.20
2018-04-16T01:17:53.700Z,56.30
2018-04-16T01:20:27.520Z,56.90
2018-04-16T01:23:01.417Z,57.90
2018-04-16T01:25:35.305Z,56.30
2018-04-16T01:28:09.075Z,56.80
2018-04-16T01:30:42.868Z,58.50
2018-04-16T01:33:16.758Z,57.50
2018-04-16T01:35:50.882Z,59.10
2018-04-16T01:38:24.758Z,59.50
2018-04-16T01:40:58.543Z,57.70
2018-04-16T01:43:32.350Z,59.90
2018-04-16T01:46:06.277Z,58.60
2018-04-16T01:48:40.074Z,59.60
2018-04-16T01:51:13.943Z,59.00
2018-04-16T01:53:47.818Z,61.00
2018-04-16T01:56:21.618Z,58.70
2018-04-16T01:58:55.358Z,61.20
2018-04-16T02:04:34.924Z,61.30
2018-04-16T02:07:08.867Z,61.10
2018-04-16T02:09:42.745Z,59.90
2018-04-16T02:12:16.745Z,60.10
2018-04-16T02:14:50.526Z,59.50
2018-04-16T02:17:24.427Z,59.30
2018-04-16T02:19:58.215Z,60.20
2018-04-16T02:22:32.075Z,61.10
2018-04-16T02:25:05.834Z,59.10
2018-04-16T02:27:39.707Z,58.30
2018-04-16T02:30:13.641Z,58.40
2018-04-16T02:32:47.542Z,59.90
2018-04-16T02:35:21.313Z,60.60
2018-04-16T02:37:55.220Z,60.20
2018-04-16T02:40:29.043Z,59.30
2018-04-16T02:43:02.962Z,59.90
2018-04-16T02:45:36.867Z,61.50
2018-04-16T02:48:10.697Z,60.50
2018-04-16T02:50:44.441Z,61.20
2018-04-16T02:53:18.332Z,61.40
2018-04-16T02:55:52.320Z,61.60
2018-04-16T02:58:26.187Z,60.50
2018-04-16T03:01:00.110Z,59.70
2018-04-16T03:03:33.994Z,59.70
2018-04-16T03:06:07.901Z,61.40
2018-04-16T03:08:41.691Z,60.40
2018-04-16T03:11:15.458Z,58.80
2018-04-16T03:13:49.487Z,60.20
2018-04-16T03:16:23.407Z,59.80
2018-04-16T03:18:57.300Z,59.50
2018-04-16T03:21:31.227Z,61.00
2018-04-16T03:24:05.158Z,60.50
2018-04-16T03:26:39.030Z,60.80
2018-04-16T03:29:12.819Z,61.80
2018-04-16T03:31:46.742Z,60.50
2018-04-16T03:34:20.707Z,61.10
2018-04-16T03:36:54.552Z,62.30
2018-04-16T03:39:29.099Z,62.00
2018-04-16T03:42:03.819Z,61.60
2018-04-16T03:44:37.748Z,61.40
2018-04-16T03:47:11.547Z,62.40
2018-04-16T03:49:45.363Z,60.90
2018-04-16T03:52:19.260Z,60.10
2018-04-16T03:54:51.285Z,61.60
2018-04-16T03:57:19.480Z,60.30
2018-04-16T03:59:47.742Z,59.80
2018-04-16T04:02:15.909Z,60.30
2018-04-16T04:04:44.105Z,58.90
2018-04-16T04:07:12.325Z,58.20
2018-04-16T04:09:40.558Z,58.60
2018-04-16T04:12:08.739Z,60.70
2018-04-16T04:14:36.953Z,61.40
2018-04-16T04:17:05.187Z,61.20
2018-04-16T04:19:33.420Z,62.10
2018-04-16T04:22:01.628Z,60.20
2018-04-16T04:24:41.528Z,60.00
2018-04-16T04:30:27.088Z,60.50
2018-04-16T04:32:55.287Z,61.50
2018-04-16T04:35:23.520Z,62.90
2018-04-16T04:37:51.715Z,61.10
2018-04-16T04:40:19.923Z,59.70
2018-04-16T04:42:48.143Z,61.20
2018-04-16T04:45:16.378Z,60.90
2018-04-16T04:47:44.556Z,59.90
2018-04-16T04:50:12.758Z,62.00
2018-04-16T04:52:41.009Z,61.10
2018-04-16T04:55:09.195Z,59.90
2018-04-16T04:57:37.395Z,62.60
2018-04-16T05:00:05.626Z,63.00
2018-04-16T05:02:33.817Z,59.30
2018-04-16T05:05:02.021Z,58.70
2018-04-16T05:07:30.203Z,60.70
2018-04-16T05:09:58.420Z,60.00
2018-04-16T05:12:26.635Z,58.70
2018-04-16T05:14:54.836Z,62.70
2018-04-16T05:17:23.045Z,61.40
2018-04-16T05:19:51.269Z,60.80
2018-04-16T05:22:19.459Z,58.30
2018-04-16T05:24:47.684Z,58.90
2018-04-16T05:27:15.871Z,58.10
2018-04-16T05:29:44.068Z,56.00
2018-04-16T05:32:12.275Z,56.30
2018-04-16T05:34:40.477Z,57.20
2018-04-16T05:37:08.690Z,57.00
2018-04-16T05:39:36.913Z,57.60
2018-04-16T05:42:05.110Z,58.50
2018-04-16T05:44:33.316Z,57.80
2018-04-16T05:47:01.518Z,56.80
2018-04-16T05:49:29.723Z,59.10
2018-04-16T05:51:57.924Z,57.80
2018-04-16T05:54:26.122Z,58.80
2018-04-16T05:56:54.392Z,58.00
2018-04-16T05:59:22.593Z,61.40
2018-04-16T06:01:50.798Z,61.30
2018-04-16T06:04:19.025Z,61.10
2018-04-16T06:06:47.243Z,61.40
2018-04-16T06:09:15.464Z,63.90
2018-04-16T06:11:43.675Z,62.10
2018-04-16T06:14:11.959Z,62.00
2018-04-16T06:16:40.158Z,62.00
2018-04-16T06:19:08.409Z,59.80
2018-04-16T06:21:37.359Z,61.30
2018-04-16T06:24:05.707Z,61.10
2018-04-16T06:26:33.934Z,60.00
2018-04-16T06:29:02.263Z,59.20
2018-04-16T06:31:30.493Z,58.00
2018-04-16T06:33:58.684Z,58.80
2018-04-16T06:36:26.879Z,57.50
2018-04-16T06:38:55.099Z,58.20
2018-04-16T06:41:24.094Z,56.60
2018-04-16T06:43:53.087Z,56.10
2018-04-16T06:46:22.065Z,56.10
2018-04-16T06:48:50.275Z,56.00
2018-04-16T06:51:18.498Z,56.40
2018-04-16T06:53:46.707Z,57.10
2018-04-16T06:56:14.919Z,57.90
2018-04-16T06:58:43.136Z,57.30
2018-04-16T07:01:11.386Z,58.30
2018-04-16T07:03:39.609Z,57.80
2018-04-16T07:06:07.820Z,58.40
2018-04-16T07:08:36.032Z,60.50
2018-04-16T07:11:05.024Z,57.60
2018-04-16T07:13:33.224Z,57.50
2018-04-16T07:16:02.317Z,57.40
2018-04-16T07:18:30.479Z,56.40
2018-04-16T07:20:58.691Z,58.60
2018-04-16T07:23:26.911Z,58.90
2018-04-16T07:25:55.152Z,59.20
2018-04-16T07:28:23.375Z,58.50
2018-04-16T07:30:51.618Z,56.50
2018-04-16T07:33:19.873Z,60.00
2018-04-16T07:35:48.069Z,60.00
2018-04-16T07:38:16.307Z,58.40
2018-04-16T07:40:44.528Z,56.80
2018-04-16T07:43:12.751Z,58.00
2018-04-16T07:45:41.089Z,58.00
2018-04-16T07:48:09.319Z,57.50
2018-04-16T07:50:37.538Z,57.50
2018-04-16T07:53:07.444Z,57.80
2018-04-16T07:55:35.653Z,57.80
2018-04-16T07:58:03.883Z,57.00
2018-04-16T08:00:32.308Z,56.70
2018-04-16T08:03:00.530Z,55.50
2018-04-16T08:05:28.779Z,54.90
2018-04-16T08:07:56.979Z,55.30
2018-04-16T08:10:25.615Z,55.50
2018-04-16T08:12:53.829Z,54.70
2018-04-16T08:15:22.042Z,54.90
2018-04-16T08:17:50.264Z,54.90
2018-04-16T08:20:18.488Z,53.90
2018-04-16T08:22:46.837Z,51.50
2018-04-16T08:25:15.296Z,52.30
2018-04-16T08:27:44.236Z,52.50
2018-04-16T08:30:12.509Z,52.50
2018-04-16T08:32:40.686Z,53.80
2018-04-16T08:35:09.659Z,53.20
2018-04-16T08:37:37.876Z,53.20
2018-04-16T08:40:06.087Z,52.90
2018-04-16T08:42:34.320Z,52.10
2018-04-16T08:45:02.585Z,52.10
2018-04-16T08:47:30.763Z,53.20
2018-04-16T08:49:59.015Z,50.90
2018-04-16T08:52:27.223Z,50.10
2018-04-16T08:54:55.443Z,52.40
2018-04-16T08:57:23.647Z,50.50
2018-04-16T08:59:51.867Z,48.70
2018-04-16T09:02:20.079Z,50.40
2018-04-16T09:04:49.055Z,51.30
2018-04-16T09:07:17.286Z,51.30
2018-04-16T09:09:45.514Z,48.70
2018-04-16T09:12:14.489Z,48.30
2018-04-16T09:14:42.714Z,48.60
2018-04-16T09:17:10.969Z,48.80
2018-04-16T09:19:39.164Z,49.70
2018-04-16T09:22:07.376Z,47.70
2018-04-16T09:24:35.623Z,48.50
2018-04-16T09:27:03.887Z,47.20
2018-04-16T09:29:32.830Z,45.20
2018-04-16T09:32:01.070Z,45.00
2018-04-16T09:34:29.297Z,47.40
2018-04-16T09:36:58.318Z,48.70
2018-04-16T09:39:26.536Z,48.50
2018-04-16T09:41:54.749Z,46.60
2018-04-16T09:44:22.962Z,47.10
2018-04-16T09:46:51.187Z,46.70
2018-04-16T09:49:19.603Z,46.50
2018-04-16T09:51:47.827Z,46.70
2018-04-16T09:54:16.035Z,47.30
2018-04-16T09:56:44.266Z,48.80
2018-04-16T09:59:12.487Z,46.50
2018-04-16T10:01:40.691Z,46.50
2018-04-16T10:04:08.907Z,47.70
2018-04-16T10:06:37.143Z,46.40
2018-04-16T10:09:06.231Z,47.50
2018-04-16T10:11:34.464Z,45.10
2018-04-16T10:14:02.667Z,44.80
2018-04-16T10:16:30.884Z,46.30
2018-04-16T10:18:59.085Z,45.30
2018-04-16T10:21:27.320Z,47.40
2018-04-16T10:23:55.656Z,45.60
2018-04-16T10:26:23.907Z,45.20
2018-04-16T10:28:52.096Z,46.80
2018-04-16T10:31:20.305Z,45.70
2018-04-16T10:33:48.572Z,46.60
2018-04-16T10:36:16.799Z,46.30
2018-04-16T10:38:45.024Z,46.00
2018-04-16T10:41:13.239Z,44.70
2018-04-16T10:43:41.431Z,44.90
2018-04-16T10:46:09.660Z,46.00
2018-04-16T10:48:37.921Z,42.90
2018-04-16T10:51:06.186Z,43.30
2018-04-16T10:53:34.439Z,44.90
2018-04-16T10:56:02.649Z,43.80
2018-04-16T10:58:30.939Z,43.70
2018-04-16T11:00:59.197Z,43.70
2018-04-16T11:03:27.384Z,43.80
2018-04-16T11:05:55.595Z,41.70
2018-04-16T11:08:23.858Z,42.60
2018-04-16T11:10:52.054Z,43.30
2018-04-16T11:13:20.280Z,45.00
2018-04-16T11:15:48.515Z,43.00
2018-04-16T11:18:16.735Z,42.80
2018-04-16T11:20:44.990Z,45.60
2018-04-16T11:23:13.193Z,44.90
2018-04-16T11:25:41.454Z,44.10
2018-04-16T11:28:09.684Z,43.50
2018-04-16T11:30:37.902Z,46.60
2018-04-16T11:33:06.142Z,46.10
2018-04-16T11:35:34.362Z,44.20
2018-04-16T11:38:02.643Z,45.90
2018-04-16T11:40:30.836Z,46.00
2018-04-16T11:42:59.038Z,43.90
2018-04-16T11:45:27.256Z,44.00
2018-04-16T11:47:55.487Z,43.20
2018-04-16T11:50:23.699Z,43.70
2018-04-16T11:52:51.947Z,42.70
2018-04-16T11:55:20.203Z,44.10
2018-04-16T11:57:48.439Z,42.20
2018-04-16T12:00:16.680Z,42.70
2018-04-16T12:02:44.987Z,41.00
2018-04-16T12:05:13.245Z,41.80
2018-04-16T12:07:41.484Z,40.30
2018-04-16T12:10:09.695Z,41.70
2018-04-16T12:12:38.695Z,45.80
2018-04-16T12:15:07.671Z,42.80
2018-04-16T12:17:36.187Z,43.00
2018-04-16T12:20:04.399Z,42.60
2018-04-16T12:22:32.723Z,45.70
2018-04-16T12:25:00.964Z,44.60
2018-04-16T12:27:29.199Z,44.50
2018-04-16T12:29:57.415Z,44.50
2018-04-16T12:32:25.652Z,46.00
2018-04-16T12:34:54.675Z,45.60
2018-04-16T12:37:22.883Z,44.90
2018-04-16T12:39:51.095Z,43.40
2018-04-16T12:42:19.360Z,45.10
2018-04-16T12:44:47.571Z,46.10
2018-04-16T12:47:15.780Z,46.00
2018-04-16T12:49:43.999Z,46.00
2018-04-16T12:52:12.977Z,43.60
2018-04-16T12:54:41.181Z,43.70
2018-04-16T12:57:09.379Z,41.90
2018-04-16T12:59:37.728Z,44.50
2018-04-16T13:02:05.946Z,41.30
2018-04-16T13:04:34.931Z,41.20
2018-04-16T13:07:03.165Z,40.80
2018-04-16T13:09:31.396Z,42.90
2018-04-16T13:11:59.654Z,41.00
2018-04-16T13:14:27.868Z,40.30
2018-04-16T13:16:56.175Z,41.20
2018-04-16T13:19:24.426Z,43.60
2018-04-16T13:21:52.739Z,45.20
2018-04-16T13:24:20.975Z,42.80
2018-04-16T13:26:49.194Z,40.60
2018-04-16T13:29:17.442Z,43.60
2018-04-16T13:31:45.644Z,41.50
2018-04-16T13:34:14.631Z,41.30
2018-04-16T13:36:42.911Z,41.20
2018-04-16T13:39:11.919Z,41.60
2018-04-16T13:41:40.130Z,41.40
2018-04-16T13:44:08.335Z,44.50
2018-04-16T13:46:36.558Z,43.50
2018-04-16T13:49:04.792Z,40.50
2018-04-16T13:51:33.024Z,43.20
2018-04-16T13:54:01.243Z,42.10
2018-04-16T13:56:29.459Z,43.80
2018-04-16T13:58:57.759Z,44.70
2018-04-16T14:01:25.991Z,44.00
2018-04-16T14:03:54.305Z,46.50
2018-04-16T14:06:22.549Z,41.70
2018-04-16T14:08:50.800Z,40.30
2018-04-16T14:11:19.120Z,41.30
2018-04-16T14:13:47.419Z,41.60
2018-04-16T14:16:15.683Z,42.20
2018-04-16T14:18:43.979Z,43.40
2018-04-16T14:21:12.307Z,42.50
2018-04-16T14:23:40.623Z,42.70
2018-04-16T14:26:08.863Z,41.70
2018-04-16T14:28:37.215Z,40.00
2018-04-16T14:31:05.490Z,42.10
2018-04-16T14:33:33.743Z,43.30
2018-04-16T14:36:02.034Z,41.60
2018-04-16T14:38:30.257Z,41.70
2018-04-16T14:40:58.546Z,40.20
2018-04-16T14:43:26.811Z,45.20
2018-04-16T14:45:55.159Z,40.50
2018-04-16T14:48:23.427Z,43.80
2018-04-16T14:50:52.924Z,42.90
2018-04-16T14:53:21.926Z,41.20
2018-04-16T14:55:50.299Z,40.80
2018-04-16T14:58:18.739Z,44.80
2018-04-16T15:00:48.429Z,42.50
2018-04-16T15:03:16.679Z,44.10
2018-04-16T15:05:44.940Z,45.00
2018-04-16T15:08:13.195Z,39.90
2018-04-16T15:10:41.405Z,41.80
2018-04-16T15:13:09.634Z,41.00
2018-04-16T15:15:37.862Z,44.50
2018-04-16T15:18:06.078Z,41.00
2018-04-16T15:20:35.181Z,46.30
2018-04-16T15:23:03.549Z,45.70
2018-04-16T15:25:31.755Z,42.20
2018-04-16T15:28:00.035Z,44.90
2018-04-16T15:30:28.371Z,43.40
2018-04-16T15:32:56.871Z,43.20
2018-04-16T15:35:25.104Z,45.40
2018-04-16T15:37:53.319Z,40.50
2018-04-16T15:40:22.303Z,44.90
2018-04-16T15:42:54.544Z,40.90
2018-04-16T15:45:23.159Z,40.80
2018-04-16T15:47:52.381Z,45.70
2018-04-16T15:50:22.259Z,43.00
2018-04-16T15:52:51.694Z,44.50
2018-04-16T15:55:23.115Z,42.00
2018-04-16T15:57:51.328Z,44.00
2018-04-16T16:00:19.548Z,42.70
2018-04-16T16:02:47.765Z,42.60
2018-04-16T16:05:15.987Z,43.70
2018-04-16T16:07:44.636Z,44.00
2018-04-16T16:10:12.855Z,44.00
2018-04-16T16:12:41.879Z,40.60
2018-04-16T16:15:10.134Z,40.20
2018-04-16T16:17:38.497Z,47.30
2018-04-16T16:20:06.740Z,43.90
2018-04-16T16:22:34.945Z,44.30
2018-04-16T16:25:03.169Z,45.60
2018-04-16T16:27:31.383Z,42.60
2018-04-16T16:29:59.595Z,41.90
2018-04-16T16:32:27.800Z,43.10
2018-04-16T16:34:56.071Z,43.30
2018-04-16T16:37:24.471Z,45.10
2018-04-16T16:39:52.683Z,43.30
2018-04-16T16:42:20.940Z,43.50
2018-04-16T16:44:49.220Z,43.50
2018-04-16T16:47:17.424Z,42.80
2018-04-16T16:49:45.676Z,41.50
2018-04-16T16:52:14.652Z,44.70
2018-04-16T16:54:42.872Z,44.80
2018-04-16T16:57:11.085Z,42.60
2018-04-16T16:59:39.327Z,42.80
2018-04-16T17:02:07.773Z,43.80
2018-04-16T17:04:36.101Z,46.20
2018-04-16T17:07:04.353Z,44.50
2018-04-16T17:09:33.443Z,42.00
2018-04-16T17:12:02.459Z,44.70
2018-04-16T17:14:30.752Z,44.30
2018-04-16T17:16:59.049Z,44.90
2018-04-16T17:19:27.269Z,41.20
2018-04-16T17:21:55.588Z,42.90
2018-04-16T17:24:23.868Z,43.90
2018-04-16T17:26:52.116Z,43.20
2018-04-16T17:29:21.173Z,45.00
2018-04-16T17:31:50.196Z,44.60
2018-04-16T17:34:18.488Z,41.70
2018-04-16T17:36:46.750Z,44.30
2018-04-16T17:39:14.986Z,45.50
2018-04-16T17:41:43.989Z,43.60
2018-04-16T17:44:12.231Z,43.30
2018-04-16T17:46:40.524Z,43.90
2018-04-16T17:49:09.643Z,43.10
2018-04-16T17:51:37.951Z,42.80
2018-04-16T17:54:06.191Z,48.40
2018-04-16T17:56:34.427Z,46.00
2018-04-16T17:59:02.700Z,44.40
2018-04-16T18:01:31.744Z,44.30
2018-04-16T18:04:00.019Z,45.00
2018-04-16T18:06:28.393Z,46.20
2018-04-16T18:08:56.773Z,44.90
2018-04-16T18:11:25.023Z,43.30
2018-04-16T18:13:53.275Z,44.30
2018-04-16T18:16:21.608Z,44.00
2018-04-16T18:18:50.068Z,46.00
2018-04-16T18:21:19.092Z,48.40
2018-04-16T18:23:47.994Z,48.30
2018-04-16T18:26:16.311Z,45.40
2018-04-16T18:28:44.645Z,45.60
2018-04-16T18:31:14.381Z,47.10
2018-04-16T18:33:46.692Z,49.50
2018-04-16T18:36:15.177Z,48.30
2018-04-16T18:38:43.756Z,47.00
2018-04-16T18:41:13.266Z,46.70
2018-04-16T18:43:41.741Z,48.90
2018-04-16T18:46:10.213Z,48.00
2018-04-16T18:48:38.559Z,47.60
2018-04-16T18:51:06.901Z,47.50
2018-04-16T18:53:35.207Z,46.00
2018-04-16T18:56:03.526Z,47.10
2018-04-16T18:58:31.863Z,47.70
2018-04-16T19:01:00.928Z,43.90
2018-04-16T19:03:29.244Z,44.40
2018-04-16T19:05:57.542Z,50.80
2018-04-16T19:08:25.838Z,48.50
2018-04-16T19:10:54.109Z,49.40
2018-04-16T19:13:22.458Z,47.60
2018-04-16T19:15:51.586Z,47.00
2018-04-16T19:18:19.793Z,47.20
2018-04-16T19:20:54.526Z,46.70
2018-04-16T19:23:22.868Z,47.60
2018-04-16T19:25:52.075Z,43.80
2018-04-16T19:28:20.498Z,46.50
2018-04-16T19:30:49.037Z,47.60
2018-04-16T19:33:22.995Z,48.40
2018-04-16T19:35:51.287Z,48.00
2018-04-16T19:38:19.639Z,46.20
2018-04-16T19:40:47.830Z,44.60
2018-04-16T19:43:16.059Z,47.60
2018-04-16T19:45:44.297Z,47.60
2018-04-16T19:48:12.501Z,47.90
2018-04-16T19:50:40.715Z,45.80
2018-04-16T19:53:08.943Z,44.60
2018-04-16T19:55:42.731Z,44.10
2018-04-16T19:58:16.699Z,44.50
2018-04-16T20:00:44.947Z,44.60
2018-04-16T20:03:18.748Z,44.10
2018-04-16T20:05:46.985Z,43.60
2018-04-16T20:08:15.215Z,43.10
2018-04-16T20:10:45.151Z,42.80
2018-04-16T20:13:13.362Z,42.60
2018-04-16T20:15:41.612Z,42.60
2018-04-16T20:18:09.843Z,42.40
2018-04-16T20:20:38.064Z,42.50
2018-04-16T20:23:06.259Z,42.70
2018-04-16T20:25:34.467Z,42.60
2018-04-16T20:28:02.739Z,42.70
2018-04-16T20:30:30.943Z,42.70
2018-04-16T20:32:59.146Z,42.80
2018-04-16T20:35:27.378Z,42.60
2018-04-16T20:37:55.575Z,42.70
2018-04-16T20:40:23.800Z,42.70
2018-04-16T20:42:52.022Z,42.70
2018-04-16T20:45:20.223Z,42.60
2018-04-16T20:47:48.450Z,42.60
2018-04-16T20:50:16.649Z,42.50
2018-04-16T20:52:44.856Z,42.50
2018-04-16T20:55:13.071Z,42.50
2018-04-16T20:57:41.300Z,42.40
2018-04-16T21:00:09.492Z,42.30
2018-04-16T21:02:37.691Z,43.80
2018-04-16T21:05:05.901Z,46.30
2018-04-16T21:07:34.131Z,48.10
2018-04-16T21:10:02.877Z,47.90
2018-04-16T21:12:31.072Z,47.70
2018-04-16T21:14:59.277Z,50.60
2018-04-16T21:17:27.473Z,49.30
2018-04-16T21:19:55.710Z,52.20
2018-04-16T21:22:23.923Z,48.70
2018-04-16T21:24:52.140Z,50.80
2018-04-16T21:27:20.354Z,54.20
2018-04-16T21:29:48.875Z,54.00
2018-04-16T21:32:17.095Z,54.90
2018-04-16T21:34:45.303Z,52.60
2018-04-16T21:37:13.576Z,51.50
2018-04-16T21:39:42.291Z,52.80
2018-04-16T21:42:13.620Z,53.20
2018-04-16T21:44:41.881Z,50.60
2018-04-16T21:47:10.113Z,50.60
2018-04-16T21:49:39.119Z,51.30
2018-04-16T21:52:07.370Z,51.50
2018-04-16T21:54:36.827Z,53.10
2018-04-16T21:57:05.078Z,51.80
2018-04-16T21:59:33.292Z,55.40
2018-04-16T22:02:01.547Z,54.30
2018-04-16T22:04:29.771Z,52.80
2018-04-16T22:06:58.032Z,53.20
2018-04-16T22:09:26.254Z,52.20
2018-04-16T22:11:54.456Z,53.00
2018-04-16T22:14:22.685Z,51.70
2018-04-16T22:16:50.910Z,53.30
2018-04-16T22:19:19.095Z,52.80
2018-04-16T22:21:47.310Z,52.20
2018-04-16T22:24:15.525Z,51.70
2018-04-16T22:26:44.415Z,53.80
2018-04-16T22:29:12.619Z,54.00
2018-04-16T22:31:40.859Z,54.60
2018-04-16T22:34:09.114Z,51.80
2018-04-16T22:36:38.316Z,55.10
2018-04-16T22:39:06.522Z,53.90
2018-04-16T22:41:34.739Z,56.80
2018-04-16T22:44:02.931Z,55.60
2018-04-16T22:46:31.171Z,55.80
2018-04-16T22:48:59.382Z,53.10
2018-04-16T22:51:27.586Z,57.00
2018-04-16T22:53:55.790Z,54.90
2018-04-16T22:56:23.999Z,55.60
2018-04-16T22:58:52.206Z,58.40
2018-04-16T23:01:20.408Z,57.90
2018-04-16T23:03:48.608Z,55.50
2018-04-16T23:06:16.942Z,56.30
2018-04-16T23:08:45.919Z,58.60
2018-04-16T23:11:14.119Z,58.50
2018-04-16T23:13:42.333Z,53.00
2018-04-16T23:16:10.545Z,52.70
2018-04-16T23:18:38.782Z,58.10
2018-04-16T23:21:06.985Z,56.70
2018-04-16T23:23:35.186Z,56.60
2018-04-16T23:26:03.390Z,55.70
2018-04-16T23:28:31.602Z,57.80
2018-04-16T23:30:59.800Z,57.00
2018-04-16T23:33:28.758Z,57.40
2018-04-16T23:35:56.963Z,57.40
2018-04-16T23:38:25.155Z,59.40
2018-04-16T23:40:53.354Z,58.50
2018-04-16T23:43:21.651Z,59.10
2018-04-16T23:45:49.854Z,57.60
2018-04-16T23:48:18.896Z,56.50
2018-04-16T23:50:47.058Z,56.50
2018-04-16T23:53:15.270Z,52.00
2018-04-16T23:55:43.466Z,53.80
2018-04-16T23:58:12.473Z,51.10
